Terminal Aerodrome Forecast
Issued by NWS Rapid City, SD

Home | Current Version | Previous Version | Graphics & Text | Print | Product List | Glossary On
Versions: 1 2 3 4 5 6 7 8 9 10 11 12 13 14 15
000
FTUS43 KUNR 261100
TAFRAP
TAF
KRAP 261120Z 2612/2712 36011KT P6SM -SN FEW009 OVC015
     FM261600 36017KT P6SM SCT025
     FM262000 04011KT P6SM SKC
     FM270100 14005KT P6SM SKC=

USA.gov is the U.S. government's official web portal to all federal, state and local government web resources and services.